Time;durP1;ratioP1;P1;durP2;ratioP2;P2;SDS_P1;SDS_P2;PMS_P1;PMS_P2;Temp;Humidity;BMP_temperature;BMP_pressure;BME280_temperature;BME280_humidity;BME280_pressure;Samples;Min_cycle;Max_cycle;Signal;HPM_P1;HPM_P2
2023/07/10 00:17:06;;;;;;;13.53;12.27;;;25.10;99.90;;;;;;6209080;23;20537;-83
2023/07/10 00:24:38;;;;;;;13.73;12.33;;;25.10;99.90;;;;;;6168563;23;20417;-82
2023/07/10 00:27:15;;;;;;;14.27;12.60;;;25.00;99.90;;;;;;6094476;23;20987;-81
2023/07/10 00:29:43;;;;;;;14.53;13.03;;;25.00;99.90;;;;;;6009197;23;20972;-83
2023/07/10 00:32:12;;;;;;;16.87;11.63;;;25.00;99.90;;;;;;6049777;23;20446;-81
2023/07/10 00:34:40;;;;;;;13.73;12.43;;;24.90;99.90;;;;;;6025355;23;20454;-79
2023/07/10 00:37:08;;;;;;;13.10;11.90;;;24.90;99.90;;;;;;6001857;23;20438;-81
2023/07/10 00:39:40;;;;;;;11.60;10.60;;;24.90;99.90;;;;;;6020847;23;20603;-79
2023/07/10 00:42:18;;;;;;;14.03;12.40;;;24.90;99.90;;;;;;6024507;23;20399;-82
2023/07/10 00:44:54;;;;;;;12.80;11.50;;;24.90;99.90;;;;;;5999513;23;20449;-81
2023/07/10 00:47:26;;;;;;;11.00;10.00;;;24.80;99.90;;;;;;6026301;23;20962;-83
2023/07/10 00:50:12;;;;;;;12.30;10.43;;;24.80;99.90;;;;;;6001169;23;20973;-82
2023/07/10 00:52:46;;;;;;;15.57;10.83;;;24.80;99.90;;;;;;6026005;23;20418;-83
2023/07/10 00:55:21;;;;;;;12.83;11.73;;;24.90;99.90;;;;;;6024903;23;20610;-82
2023/07/10 00:57:53;;;;;;;12.80;11.53;;;24.90;99.90;;;;;;6147026;23;20439;-82
2023/07/10 01:00:23;;;;;;;12.77;10.83;;;24.80;99.90;;;;;;6147174;23;20626;-82
2023/07/10 01:02:50;;;;;;;12.07;10.80;;;24.80;99.90;;;;;;6150398;23;20391;-83
2023/07/10 01:05:19;;;;;;;11.97;10.83;;;24.80;99.90;;;;;;6129380;23;20423;-82
2023/07/10 01:07:56;;;;;;;10.60;9.60;;;24.80;99.90;;;;;;6163642;23;20522;-82
2023/07/10 01:10:23;;;;;;;10.97;9.87;;;24.80;99.90;;;;;;6169009;23;20407;-83
2023/07/10 01:12:51;;;;;;;11.50;10.40;;;24.80;99.90;;;;;;6167873;23;20431;-81
2023/07/10 01:15:18;;;;;;;11.70;10.60;;;24.80;99.90;;;;;;6169753;23;20489;-83
2023/07/10 01:17:48;;;;;;;10.57;9.50;;;24.80;99.90;;;;;;6168235;23;20510;-83
2023/07/10 01:20:43;;;;;;;10.13;9.20;;;24.80;99.90;;;;;;6168822;23;20414;-84
2023/07/10 01:23:10;;;;;;;11.13;9.60;;;24.80;99.90;;;;;;6168810;23;20428;-82
2023/07/10 01:25:50;;;;;;;12.20;10.07;;;24.80;99.90;;;;;;6163776;23;20407;-82
2023/07/10 01:28:20;;;;;;;10.33;9.33;;;24.70;99.90;;;;;;6191255;23;20425;-81
2023/07/10 01:30:50;;;;;;;11.33;10.03;;;24.70;99.90;;;;;;6176110;23;20405;-82
2023/07/10 01:33:23;;;;;;;10.63;8.90;;;24.70;99.90;;;;;;6171638;23;20406;-83
2023/07/10 01:35:54;;;;;;;10.60;9.60;;;24.60;99.90;;;;;;6146763;23;20468;-82
2023/07/10 01:38:29;;;;;;;11.77;10.70;;;24.60;99.90;;;;;;6174384;23;20414;-82
2023/07/10 01:40:56;;;;;;;11.50;10.00;;;24.60;99.90;;;;;;6174853;23;20386;-81
2023/07/10 01:43:24;;;;;;;12.60;11.10;;;24.60;99.90;;;;;;6175213;23;20413;-82
2023/07/10 01:45:51;;;;;;;12.47;11.27;;;24.70;99.90;;;;;;6175959;23;20410;-82
2023/07/10 01:48:23;;;;;;;12.83;11.63;;;24.70;99.90;;;;;;6151040;22;20426;-84
2023/07/10 01:50:50;;;;;;;11.20;10.20;;;24.60;99.90;;;;;;6175746;23;20475;-84
2023/07/10 01:53:17;;;;;;;10.40;9.50;;;24.50;99.90;;;;;;6177107;23;20417;-83
2023/07/10 01:55:46;;;;;;;10.07;9.10;;;24.50;99.90;;;;;;6154997;23;20588;-82
2023/07/10 01:58:14;;;;;;;11.43;10.33;;;24.40;99.90;;;;;;6152135;23;20456;-84
2023/07/10 02:00:41;;;;;;;12.13;10.97;;;24.50;99.90;;;;;;6159571;23;20941;-82
2023/07/10 02:03:08;;;;;;;12.87;11.60;;;24.50;99.90;;;;;;6180735;23;20402;-83
2023/07/10 02:05:35;;;;;;;12.70;10.87;;;24.50;99.90;;;;;;6152812;22;20459;-82
2023/07/10 02:08:02;;;;;;;13.07;11.80;;;24.40;99.90;;;;;;6178800;23;20421;-84
2023/07/10 02:10:29;;;;;;;12.90;11.67;;;24.40;99.90;;;;;;6153394;23;20402;-84
2023/07/10 02:13:10;;;;;;;17.37;12.73;;;24.30;99.90;;;;;;6182038;23;20913;-82
2023/07/10 02:15:37;;;;;;;13.00;11.80;;;24.20;99.90;;;;;;6167380;22;20556;-81
2023/07/10 02:18:04;;;;;;;12.43;11.33;;;24.10;99.90;;;;;;6197216;23;20426;-82
2023/07/10 02:20:30;;;;;;;15.40;12.97;;;24.10;99.90;;;;;;6165953;23;20426;-81
2023/07/10 02:22:57;;;;;;;15.53;14.03;;;24.10;99.90;;;;;;6146237;23;20453;-83
2023/07/10 02:25:24;;;;;;;19.20;13.57;;;23.90;99.90;;;;;;6161946;22;20414;-82
2023/07/10 02:27:51;;;;;;;13.40;12.20;;;23.90;99.90;;;;;;6176894;23;20503;-81
2023/07/10 02:30:18;;;;;;;14.07;12.27;;;23.90;99.90;;;;;;6179071;23;20483;-83
2023/07/10 02:32:44;;;;;;;15.20;12.67;;;24.00;99.90;;;;;;6194051;23;20404;-83
2023/07/10 02:35:11;;;;;;;14.30;12.40;;;24.00;99.90;;;;;;6196737;23;20417;-82
2023/07/10 02:37:38;;;;;;;18.30;13.93;;;23.90;99.90;;;;;;6172331;23;20441;-84
2023/07/10 02:40:06;;;;;;;14.53;13.07;;;23.90;99.90;;;;;;6163716;22;20448;-84
2023/07/10 02:42:34;;;;;;;13.90;12.60;;;23.80;99.90;;;;;;6155008;23;20425;-83
2023/07/10 02:45:01;;;;;;;15.13;13.63;;;23.80;99.90;;;;;;6179298;22;20426;-82
2023/07/10 02:47:29;;;;;;;13.43;12.03;;;23.70;99.90;;;;;;6151603;22;20440;-83
2023/07/10 02:49:55;;;;;;;15.53;14.00;;;23.70;99.90;;;;;;6177383;23;20463;-82
2023/07/10 02:52:22;;;;;;;15.87;14.27;;;23.60;99.90;;;;;;6179523;23;20797;-84
2023/07/10 02:54:49;;;;;;;17.37;13.77;;;23.60;99.90;;;;;;6180027;23;20497;-83
2023/07/10 02:57:16;;;;;;;16.37;14.73;;;23.50;99.90;;;;;;6166139;23;21301;-82
2023/07/10 02:59:43;;;;;;;18.70;14.70;;;23.50;99.90;;;;;;6165743;22;20453;-82
2023/07/10 03:02:09;;;;;;;17.77;15.07;;;23.50;99.90;;;;;;6161802;23;20466;-86
2023/07/10 03:04:36;;;;;;;18.70;15.50;;;23.40;99.90;;;;;;6159057;23;20846;-84
2023/07/10 03:07:04;;;;;;;16.73;14.93;;;23.40;99.90;;;;;;6151593;23;20499;-83
2023/07/10 03:09:31;;;;;;;22.03;17.10;;;23.50;99.90;;;;;;6181733;23;20416;-83
2023/07/10 03:11:57;;;;;;;19.73;17.00;;;23.50;99.90;;;;;;6156415;22;20398;-81
2023/07/10 03:14:24;;;;;;;22.73;18.00;;;23.40;99.90;;;;;;6131122;23;20498;-85
2023/07/10 03:16:51;;;;;;;20.17;16.83;;;23.40;99.90;;;;;;6182129;23;20461;-83
2023/07/10 03:19:19;;;;;;;23.87;19.83;;;23.40;99.90;;;;;;6175913;23;20515;-83
2023/07/10 03:21:46;;;;;;;22.50;19.30;;;23.40;99.90;;;;;;6147241;22;20481;-83
2023/07/10 03:24:14;;;;;;;21.77;18.90;;;23.30;99.90;;;;;;6118093;23;20498;-84
2023/07/10 03:26:41;;;;;;;21.50;17.20;;;23.30;99.90;;;;;;6142891;23;20458;-83
2023/07/10 03:29:11;;;;;;;20.20;17.20;;;23.20;99.90;;;;;;6142917;23;20451;-82
2023/07/10 03:31:38;;;;;;;20.00;15.43;;;23.10;99.90;;;;;;6145346;23;20418;-82
2023/07/10 03:34:07;;;;;;;18.47;16.57;;;23.00;99.90;;;;;;6147816;23;20407;-83
2023/07/10 03:36:34;;;;;;;15.73;14.13;;;23.00;99.90;;;;;;6144806;23;20447;-82
2023/07/10 03:39:00;;;;;;;16.63;14.90;;;23.00;99.90;;;;;;6143225;23;20407;-82
2023/07/10 03:41:27;;;;;;;16.20;14.50;;;23.00;99.90;;;;;;6143390;22;20425;-82
2023/07/10 03:43:55;;;;;;;20.90;15.57;;;23.00;99.90;;;;;;6143481;23;20483;-82
2023/07/10 03:46:23;;;;;;;19.87;16.60;;;23.00;99.90;;;;;;6152877;22;21071;-82
2023/07/10 03:48:51;;;;;;;20.07;16.70;;;23.10;99.90;;;;;;6149574;23;20419;-82
2023/07/10 03:51:19;;;;;;;23.97;15.23;;;23.10;99.90;;;;;;6144024;23;20403;-81
2023/07/10 03:53:48;;;;;;;20.53;16.07;;;23.10;99.90;;;;;;6121717;23;20441;-84
2023/07/10 03:56:15;;;;;;;17.90;15.40;;;23.10;99.90;;;;;;6145788;23;20781;-82
2023/07/10 03:58:44;;;;;;;15.90;14.30;;;23.10;99.90;;;;;;6145470;23;20741;-82
2023/07/10 04:01:13;;;;;;;15.73;13.50;;;23.10;99.90;;;;;;6093257;23;20411;-82
2023/07/10 04:03:40;;;;;;;14.90;12.63;;;23.10;99.90;;;;;;6147103;23;20411;-82
2023/07/10 04:06:10;;;;;;;17.23;13.60;;;23.10;99.90;;;;;;6147553;23;20489;-81
2023/07/10 04:08:40;;;;;;;14.87;11.23;;;23.00;99.90;;;;;;6123439;23;20411;-83
2023/07/10 04:11:10;;;;;;;15.47;11.90;;;23.00;99.90;;;;;;6148614;23;20414;-82
2023/07/10 04:13:38;;;;;;;12.23;10.97;;;22.90;99.90;;;;;;6146024;23;20486;-81
2023/07/10 04:16:11;;;;;;;12.90;10.70;;;22.90;99.90;;;;;;6144141;23;20450;-82
2023/07/10 04:18:39;;;;;;;16.93;11.90;;;22.90;99.90;;;;;;6144149;23;20411;-82
2023/07/10 04:21:13;;;;;;;15.00;11.60;;;23.00;99.90;;;;;;6148938;23;20403;-83
2023/07/10 04:23:40;;;;;;;12.40;11.07;;;22.90;99.90;;;;;;6137654;23;20803;-84
2023/07/10 04:26:17;;;;;;;11.70;10.50;;;22.90;99.90;;;;;;6166057;22;20412;-83
2023/07/10 04:28:49;;;;;;;16.40;10.57;;;22.80;99.90;;;;;;6150753;23;20879;-82
2023/07/10 04:31:19;;;;;;;12.20;10.57;;;22.80;99.90;;;;;;6120351;23;20419;-82
2023/07/10 04:33:50;;;;;;;12.57;11.27;;;22.80;99.90;;;;;;6122920;23;20387;-83
2023/07/10 04:36:18;;;;;;;13.63;11.40;;;22.80;99.90;;;;;;6119731;23;20458;-81
2023/07/10 04:38:45;;;;;;;15.13;10.83;;;22.80;99.90;;;;;;6119998;23;20482;-81
2023/07/10 04:41:17;;;;;;;14.97;10.73;;;22.80;99.90;;;;;;6143382;23;20424;-84
2023/07/10 04:43:45;;;;;;;15.97;10.80;;;22.80;99.90;;;;;;6146211;22;20408;-83
2023/07/10 04:46:15;;;;;;;13.93;10.63;;;22.70;99.90;;;;;;6120502;23;20418;-82
2023/07/10 04:48:43;;;;;;;12.20;10.67;;;22.80;99.90;;;;;;6145969;23;20407;-83
2023/07/10 04:51:11;;;;;;;13.47;10.90;;;22.80;99.90;;;;;;6142620;23;20418;-82
2023/07/10 04:53:45;;;;;;;15.63;11.67;;;22.80;99.90;;;;;;6121465;23;20950;-83
2023/07/10 04:56:20;;;;;;;12.77;10.63;;;22.90;99.90;;;;;;6102931;23;20442;-83
2023/07/10 04:58:55;;;;;;;15.47;11.40;;;22.90;99.90;;;;;;6119653;23;20453;-83
2023/07/10 05:01:37;;;;;;;14.13;12.60;;;22.90;99.90;;;;;;6126654;23;20468;-84
2023/07/10 05:04:04;;;;;;;16.40;12.27;;;22.90;99.90;;;;;;6127159;23;20404;-81
2023/07/10 05:06:31;;;;;;;21.83;14.40;;;22.90;99.90;;;;;;6150754;23;20438;-82
2023/07/10 05:09:00;;;;;;;16.23;12.73;;;22.90;99.90;;;;;;6155669;23;20861;-82
2023/07/10 05:11:28;;;;;;;14.93;13.00;;;22.80;99.90;;;;;;6167492;23;20403;-82
2023/07/10 05:13:55;;;;;;;14.57;13.07;;;22.70;99.90;;;;;;6165609;22;20399;-83
2023/07/10 05:16:23;;;;;;;16.57;12.40;;;22.70;99.90;;;;;;6163397;22;20546;-83
2023/07/10 05:18:53;;;;;;;19.43;12.70;;;22.80;99.90;;;;;;6149629;23;20414;-79
2023/07/10 05:21:20;;;;;;;16.10;12.33;;;22.70;99.90;;;;;;6144931;23;20443;-84
2023/07/10 05:23:48;;;;;;;15.37;12.20;;;22.70;99.90;;;;;;6145516;23;20438;-83
2023/07/10 05:26:30;;;;;;;16.00;12.83;;;22.70;99.90;;;;;;6146635;23;20500;-82
2023/07/10 05:28:57;;;;;;;16.60;13.63;;;22.80;99.90;;;;;;6144585;23;20439;-82
2023/07/10 05:31:24;;;;;;;14.77;10.80;;;22.80;99.90;;;;;;6146524;22;20497;-83
2023/07/10 05:33:54;;;;;;;16.57;9.80;;;22.80;99.90;;;;;;6148220;23;20403;-84
2023/07/10 05:36:21;;;;;;;10.47;9.37;;;22.80;99.90;;;;;;6146636;23;21046;-84
2023/07/10 05:38:48;;;;;;;15.37;8.90;;;22.80;99.90;;;;;;6249885;22;20445;-83
2023/07/10 05:41:19;;;;;;;12.70;8.60;;;22.70;99.90;;;;;;6145551;23;20510;-83
2023/07/10 05:43:46;;;;;;;11.03;9.23;;;22.70;99.90;;;;;;6148321;22;20415;-84
2023/07/10 05:46:18;;;;;;;7.83;7.07;;;22.60;99.90;;;;;;6249257;22;20474;-83
2023/07/10 05:48:48;;;;;;;11.37;8.27;;;22.60;99.90;;;;;;6148534;23;20395;-83
2023/07/10 05:51:15;;;;;;;10.00;7.20;;;22.60;99.90;;;;;;6149042;23;20446;-83
2023/07/10 05:53:45;;;;;;;11.57;8.20;;;22.60;99.90;;;;;;6251280;22;20448;-83
2023/07/10 05:56:14;;;;;;;10.77;8.30;;;22.60;99.90;;;;;;6149494;23;20469;-82
2023/07/10 05:58:41;;;;;;;11.37;7.87;;;22.60;99.90;;;;;;6155330;22;20414;-82
2023/07/10 06:01:10;;;;;;;12.27;6.83;;;22.70;99.90;;;;;;6258500;22;20411;-81
2023/07/10 06:03:37;;;;;;;9.13;6.87;;;22.80;99.90;;;;;;6153845;23;20407;-85
2023/07/10 06:06:06;;;;;;;10.20;6.87;;;22.70;99.90;;;;;;6156609;23;20411;-82
2023/07/10 06:08:34;;;;;;;9.53;6.60;;;22.70;99.90;;;;;;6130123;23;20411;-83
2023/07/10 06:11:06;;;;;;;6.70;5.80;;;22.70;99.90;;;;;;6138425;23;20406;-82
2023/07/10 06:13:34;;;;;;;11.37;7.43;;;22.70;99.90;;;;;;6150862;23;20498;-81
2023/07/10 06:16:08;;;;;;;7.73;6.20;;;22.70;99.90;;;;;;6152937;23;20434;-82
2023/07/10 06:18:35;;;;;;;10.33;6.77;;;22.60;99.90;;;;;;6167833;23;20417;-82
2023/07/10 06:21:03;;;;;;;7.20;5.70;;;22.70;99.90;;;;;;6170149;23;20411;-82
2023/07/10 06:23:30;;;;;;;7.57;5.90;;;22.80;99.90;;;;;;6166697;23;20411;-82
2023/07/10 06:26:01;;;;;;;11.17;6.30;;;23.00;99.90;;;;;;6153031;23;20415;-83
2023/07/10 06:28:34;;;;;;;8.70;5.90;;;23.10;99.90;;;;;;6156636;23;20415;-84
2023/07/10 06:31:07;;;;;;;8.50;6.17;;;23.20;99.70;;;;;;6140069;23;20510;-83
2023/07/10 06:33:35;;;;;;;6.17;5.57;;;23.30;99.50;;;;;;6139547;23;20471;-82
2023/07/10 06:36:04;;;;;;;6.10;5.00;;;23.40;99.30;;;;;;6159327;23;20453;-83
2023/07/10 06:38:32;;;;;;;6.07;4.47;;;23.60;99.20;;;;;;6136063;23;20396;-82
2023/07/10 06:40:59;;;;;;;6.50;5.20;;;23.80;98.80;;;;;;6157236;23;20411;-83
2023/07/10 06:43:26;;;;;;;6.30;4.97;;;23.80;98.40;;;;;;6122287;23;20414;-82
2023/07/10 06:45:55;;;;;;;8.10;6.03;;;23.80;98.20;;;;;;6146918;23;20441;-83
2023/07/10 06:48:22;;;;;;;7.30;5.30;;;23.80;98.20;;;;;;6143971;22;20430;-82
2023/07/10 06:50:57;;;;;;;7.63;6.20;;;23.90;98.20;;;;;;6144928;23;20410;-83
2023/07/10 06:53:27;;;;;;;7.47;5.60;;;24.00;97.90;;;;;;6121228;23;20406;-82
2023/07/10 06:55:57;;;;;;;11.90;5.80;;;24.00;97.70;;;;;;6244853;22;20410;-81
2023/07/10 06:58:26;;;;;;;11.50;5.23;;;24.10;97.60;;;;;;6144655;23;20546;-82
2023/07/10 07:00:54;;;;;;;9.23;7.10;;;24.20;97.80;;;;;;6141462;23;20461;-82
2023/07/10 07:03:22;;;;;;;6.43;5.67;;;24.20;97.00;;;;;;6121316;23;20411;-80
2023/07/10 07:05:52;;;;;;;6.33;5.73;;;24.20;97.30;;;;;;6142277;23;20425;-82
2023/07/10 07:08:22;;;;;;;6.60;5.63;;;24.30;97.10;;;;;;6117582;23;20550;-83
2023/07/10 07:10:51;;;;;;;7.53;5.23;;;24.30;97.40;;;;;;6134838;23;20427;-81
2023/07/10 07:13:20;;;;;;;8.20;5.37;;;24.40;96.70;;;;;;6159776;23;20420;-83
2023/07/10 07:15:49;;;;;;;5.90;4.90;;;24.40;96.50;;;;;;6258544;22;20407;-82
2023/07/10 07:18:17;;;;;;;5.00;4.60;;;24.40;96.50;;;;;;6131998;23;20470;-84
2023/07/10 07:20:48;;;;;;;5.07;4.57;;;24.50;96.60;;;;;;6258341;22;20415;-83
2023/07/10 07:23:15;;;;;;;7.20;5.87;;;24.50;96.30;;;;;;6155674;23;20430;-82
2023/07/10 07:25:42;;;;;;;5.30;4.70;;;24.40;96.50;;;;;;6128190;23;20400;-83
2023/07/10 07:28:12;;;;;;;6.53;5.03;;;24.50;96.50;;;;;;6155826;23;21205;-83
2023/07/10 07:30:47;;;;;;;6.23;5.13;;;24.80;96.00;;;;;;6259356;22;20445;-81
2023/07/10 07:33:18;;;;;;;6.17;5.57;;;24.80;95.90;;;;;;6263291;22;20410;-82
2023/07/10 07:35:45;;;;;;;7.50;5.57;;;24.80;95.60;;;;;;6133187;23;20414;-83
2023/07/10 07:38:13;;;;;;;7.30;4.90;;;24.70;95.60;;;;;;6125546;23;20439;-83
2023/07/10 07:40:40;;;;;;;6.87;5.50;;;24.60;95.70;;;;;;6149615;23;20487;-85
2023/07/10 07:43:07;;;;;;;4.67;4.00;;;24.70;95.50;;;;;;6250864;22;20418;-84
2023/07/10 07:45:34;;;;;;;5.37;4.87;;;24.80;95.20;;;;;;6147359;23;20461;-82
2023/07/10 07:48:00;;;;;;;6.53;5.77;;;24.90;95.10;;;;;;6153888;23;20530;-84
2023/07/10 07:50:27;;;;;;;8.00;5.00;;;24.80;95.00;;;;;;6150254;23;21153;-84
2023/07/10 07:52:54;;;;;;;6.10;5.50;;;24.80;94.90;;;;;;6148470;23;20426;-83
2023/07/10 07:55:21;;;;;;;7.10;4.47;;;24.60;94.90;;;;;;6251476;22;20429;-83
2023/07/10 07:57:48;;;;;;;6.77;6.20;;;24.60;94.80;;;;;;6252857;22;20570;-84
2023/07/10 08:00:15;;;;;;;5.10;4.57;;;24.60;94.80;;;;;;6151217;23;20411;-83
2023/07/10 08:02:43;;;;;;;5.93;4.40;;;24.70;94.90;;;;;;6154075;23;20441;-83
2023/07/10 08:05:10;;;;;;;6.43;3.93;;;24.90;94.70;;;;;;6157519;23;20407;-83
2023/07/10 08:07:42;;;;;;;5.10;4.00;;;25.10;94.30;;;;;;6168130;23;20454;-84
2023/07/10 08:10:09;;;;;;;6.87;4.10;;;25.40;93.80;;;;;;6165367;23;20395;-83
2023/07/10 08:12:35;;;;;;;5.40;4.17;;;25.50;93.40;;;;;;6228176;22;20496;-84
2023/07/10 08:15:03;;;;;;;4.47;4.07;;;25.60;93.10;;;;;;6150801;23;20892;-84
2023/07/10 08:17:29;;;;;;;6.83;4.67;;;25.70;92.80;;;;;;6116949;23;20481;-82
2023/07/10 08:19:56;;;;;;;4.60;4.20;;;25.70;92.60;;;;;;6143477;23;20425;-84
2023/07/10 08:22:23;;;;;;;5.67;4.63;;;25.60;92.40;;;;;;6244447;22;20407;-84
2023/07/10 08:24:50;;;;;;;7.37;4.13;;;25.60;92.30;;;;;;6148146;23;20486;-83
2023/07/10 08:27:16;;;;;;;9.10;6.87;;;25.60;92.40;;;;;;6143585;23;20892;-83
2023/07/10 08:29:44;;;;;;;5.23;3.90;;;25.60;92.40;;;;;;6142898;23;20407;-85
2023/07/10 08:32:11;;;;;;;4.13;3.73;;;26.10;92.00;;;;;;6145197;23;20417;-83
2023/07/10 08:34:38;;;;;;;4.03;3.57;;;26.40;90.90;;;;;;6144752;23;20723;-84
2023/07/10 08:37:05;;;;;;;3.90;3.50;;;26.50;90.10;;;;;;6246969;22;20450;-82
2023/07/10 08:39:32;;;;;;;6.10;3.60;;;26.50;89.80;;;;;;6143394;23;20407;-81
2023/07/10 08:42:03;;;;;;;4.80;3.27;;;26.60;89.00;;;;;;6247177;22;20418;-80
2023/07/10 08:44:34;;;;;;;3.80;3.50;;;26.50;88.70;;;;;;6145757;23;20417;-83
2023/07/10 08:47:17;;;;;;;3.20;2.87;;;26.50;89.20;;;;;;6120610;23;20540;-82
2023/07/10 08:49:54;;;;;;;3.40;3.10;;;26.40;86.90;;;;;;6119775;23;20924;-83
2023/07/10 08:52:59;;;;;;;3.47;2.90;;;26.50;87.30;;;;;;6145104;23;20383;-82
2023/07/10 08:55:36;;;;;;;5.90;2.70;;;26.70;86.60;;;;;;6116088;23;20491;-84
2023/07/10 08:58:03;;;;;;;5.43;2.93;;;27.10;84.50;;;;;;6146694;23;20481;-84
2023/07/10 09:00:40;;;;;;;4.50;3.17;;;26.90;84.40;;;;;;6147132;23;20861;-83
2023/07/10 09:03:34;;;;;;;4.73;2.50;;;26.60;84.90;;;;;;6147571;23;20395;-82
2023/07/10 09:06:10;;;;;;;2.17;2.00;;;26.50;84.30;;;;;;6143124;23;20999;-85
2023/07/10 09:08:37;;;;;;;1.77;1.67;;;26.70;82.70;;;;;;6147296;23;20495;-82
2023/07/10 09:11:05;;;;;;;2.30;2.10;;;27.00;80.60;;;;;;6144037;23;20407;-85
2023/07/10 09:13:40;;;;;;;2.63;2.43;;;27.60;76.70;;;;;;6146835;23;20411;-83
2023/07/10 09:16:17;;;;;;;4.13;2.30;;;28.00;75.00;;;;;;6146494;23;20402;-82
2023/07/10 09:18:58;;;;;;;2.50;2.30;;;28.40;72.40;;;;;;6141550;23;20567;-83
2023/07/10 09:21:30;;;;;;;2.33;2.10;;;28.80;70.60;;;;;;6121138;23;20580;-84
2023/07/10 09:23:57;;;;;;;2.53;2.33;;;29.20;68.00;;;;;;6121114;23;20403;-83
2023/07/10 09:26:30;;;;;;;2.70;2.50;;;29.20;67.70;;;;;;6144540;23;20431;-81
2023/07/10 09:29:04;;;;;;;2.53;2.33;;;28.80;66.40;;;;;;6121616;23;20409;-83
2023/07/10 09:31:53;;;;;;;2.50;2.30;;;28.40;67.00;;;;;;6147989;23;20474;-81
2023/07/10 09:34:22;;;;;;;3.17;2.30;;;29.40;64.90;;;;;;6144039;23;20391;-82
2023/07/10 09:36:54;;;;;;;3.93;2.93;;;29.50;63.20;;;;;;6147453;23;20493;-84
2023/07/10 09:39:27;;;;;;;2.37;2.10;;;29.00;65.40;;;;;;6121445;23;20403;-83
2023/07/10 09:41:59;;;;;;;2.87;2.50;;;28.80;64.30;;;;;;6147209;23;20383;-84
2023/07/10 09:44:39;;;;;;;2.13;1.93;;;30.20;60.20;;;;;;6123011;23;20470;-83
2023/07/10 09:47:11;;;;;;;2.13;1.40;;;31.10;57.10;;;;;;6147554;23;20422;-81
2023/07/10 09:49:56;;;;;;;2.10;1.90;;;32.00;54.60;;;;;;6147532;23;20399;-83
2023/07/10 09:52:31;;;;;;;2.23;1.80;;;32.20;53.90;;;;;;6149667;23;20411;-83
2023/07/10 09:55:07;;;;;;;3.03;1.70;;;33.00;52.30;;;;;;6123581;23;20409;-83
2023/07/10 09:57:49;;;;;;;2.60;1.70;;;33.10;50.70;;;;;;6165325;22;20477;-84
2023/07/10 10:00:19;;;;;;;3.30;1.57;;;32.70;49.30;;;;;;6170533;23;20379;-82
2023/07/10 10:02:54;;;;;;;3.13;1.40;;;32.50;49.70;;;;;;6169161;23;20425;-82
2023/07/10 10:05:21;;;;;;;1.53;1.33;;;32.80;49.60;;;;;;6169469;23;20390;-83
2023/07/10 10:07:50;;;;;;;3.03;1.27;;;33.30;48.30;;;;;;6273535;22;20473;-84
2023/07/10 10:10:27;;;;;;;1.10;1.00;;;33.50;47.50;;;;;;6162933;23;20419;-82
2023/07/10 10:12:58;;;;;;;0.90;0.90;;;33.70;46.30;;;;;;6133048;23;20397;-84
2023/07/10 10:15:38;;;;;;;1.30;1.20;;;34.40;45.80;;;;;;6155124;23;20394;-84
2023/07/10 10:18:12;;;;;;;2.03;1.50;;;33.30;46.20;;;;;;6154341;23;20931;-84
2023/07/10 10:20:40;;;;;;;1.73;1.17;;;32.60;46.60;;;;;;6151914;23;20391;-81
2023/07/10 10:23:41;;;;;;;0.90;0.90;;;32.10;46.90;;;;;;6151053;23;20415;-81
2023/07/10 10:32:19;;;;;;;;;;;;;;;;;;;;;
2023/07/10 11:12:12;;;;;;;1.43;1.20;;;31.80;45.10;;;;;;6214448;23;20473;-84
2023/07/10 11:15:58;;;;;;;1.20;1.00;;;31.50;46.00;;;;;;6062111;23;20969;-82
2023/07/10 11:37:49;;;;;;;1.67;1.40;;;31.70;46.00;;;;;;6117684;23;20475;-85
2023/07/10 11:52:31;;;;;;;1.50;1.40;;;31.70;46.20;;;;;;6022135;23;20366;-82
2023/07/10 12:04:07;;;;;;;;;;;;;;;;;;;;;
2023/07/10 12:10:57;;;;;;;2.63;1.90;;;31.30;46.80;;;;;;5865328;24;20415;-83
2023/07/10 12:17:32;;;;;;;1.50;1.40;;;33.00;44.90;;;;;;6071209;23;20435;-84
2023/07/10 12:25:12;;;;;;;1.43;1.33;;;32.30;44.70;;;;;;5983138;24;20569;-85
2023/07/10 12:32:58;;;;;;;1.90;1.30;;;32.10;44.70;;;;;;5867146;24;20540;-83
2023/07/10 13:08:14;;;;;;;;;;;;;;;;;;;;;
2023/07/10 13:11:39;;;;;;;2.43;1.63;;;32.20;43.10;;;;;;5887280;24;20422;-85
2023/07/10 13:14:52;;;;;;;1.83;1.40;;;32.10;43.20;;;;;;5931261;23;20547;-85
2023/07/10 13:22:17;;;;;;;2.10;1.30;;;32.30;42.40;;;;;;5949936;24;20404;-83
2023/07/10 13:25:34;;;;;;;2.80;1.57;;;31.80;43.50;;;;;;5963068;23;20485;-84
2023/07/10 13:29:15;;;;;;;3.27;1.93;;;32.30;42.90;;;;;;6066573;23;20433;-82
2023/07/10 13:36:20;;;;;;;;;;;;;;;;;;;;;
2023/07/10 13:44:09;;;;;;;1.10;1.00;;;31.90;42.00;;;;;;6034086;23;20493;-83
2023/07/10 13:47:23;;;;;;;2.37;1.30;;;31.90;42.20;;;;;;6028889;23;20503;-82
2023/07/10 13:51:19;;;;;;;1.50;1.40;;;31.70;42.10;;;;;;5936043;23;20422;-83
2023/07/10 14:02:22;;;;;;;;;;;;;;;;;;;;;
2023/07/10 14:06:23;;;;;;;;;;;;;;;;;;;;;
2023/07/10 14:10:24;;;;;;;1.27;1.17;;;31.40;41.60;;;;;;5803617;24;20461;-84
2023/07/10 14:28:58;;;;;;;1.13;0.93;;;31.20;42.30;;;;;;5320104;22;20874192;-84
2023/07/10 14:32:53;;;;;;;;;;;;;;;;;;;;;
2023/07/10 15:03:33;;;;;;;;;;;;;;;;;;;;;
2023/07/10 15:14:38;;;;;;;2.00;1.43;;;30.70;42.70;;;;;;6217496;22;20719;-84
2023/07/10 15:22:02;;;;;;;6.90;1.60;;;30.80;42.00;;;;;;6033733;23;20473;-84
2023/07/10 15:42:59;;;;;;;1.87;1.50;;;30.80;42.20;;;;;;6239355;22;20502;-84
2023/07/10 15:58:59;;;;;;;;;;;;;;;;;;;;;
2023/07/10 16:10:49;;;;;;;2.80;1.53;;;30.40;42.70;;;;;;5948206;24;20416;-85
2023/07/10 16:17:46;;;;;;;;;;;;;;;;;;;;;
2023/07/10 16:29:30;;;;;;;1.80;1.10;;;30.10;43.20;;;;;;5889231;24;20510;-83
2023/07/10 16:48:30;;;;;;;3.43;1.20;;;30.20;43.10;;;;;;5965737;23;20521;-83
2023/07/10 16:59:55;;;;;;;;;;;;;;;;;;;;;
2023/07/10 17:15:18;;;;;;;;;;;;;;;;;;;;;
2023/07/10 17:18:40;;;;;;;1.80;1.53;;;30.60;42.70;;;;;;6120452;23;20418;-82
2023/07/10 17:35:05;;;;;;;1.23;1.13;;;30.20;43.70;;;;;;6249791;22;20633;-85
2023/07/10 17:55:40;;;;;;;1.93;1.40;;;29.70;44.80;;;;;;6224540;22;20452;-84
2023/07/10 18:15:50;;;;;;;;;;;;;;;;;;;;;
2023/07/10 18:24:10;;;;;;;;;;;;;;;;;;;;;
2023/07/10 18:55:58;;;;;;;;;;;;;;;;;;;;;
2023/07/10 18:59:37;;;;;;;2.13;1.83;;;29.40;45.20;;;;;;6213128;23;20423;-84
2023/07/10 19:33:22;;;;;;;1.93;1.43;;;28.70;46.40;;;;;;6036051;23;20430;-86
2023/07/10 19:44:42;;;;;;;3.13;1.43;;;28.50;46.80;;;;;;5986197;23;20394;-85
2023/07/10 19:51:58;;;;;;;1.50;1.40;;;28.30;47.40;;;;;;6247177;23;20395;-82
2023/07/10 20:33:55;;;;;;;;;;;;;;;;;;;;;
2023/07/10 20:43:08;;;;;;;3.53;2.20;;;27.60;52.80;;;;;;6210336;22;20455;-82
2023/07/10 20:46:52;;;;;;;;;;;;;;;;;;;;;
2023/07/10 21:55:30;;;;;;;;;;;;;;;;;;;;;
2023/07/10 22:48:11;;;;;;;;;;;;;;;;;;;;;
2023/07/10 23:19:18;;;;;;;2.27;2.10;;;24.10;69.40;;;;;;6195444;22;20489;-83
2023/07/10 23:23:21;;;;;;;;;;;;;;;;;;;;;
